sensor_id;sensor_type;location;lat;lon;timestamp;P1;durP1;ratioP1;P2;durP2;ratioP2
66183;SDS011;52989;48.796;9.806;2022-07-10T00:00:09;3.60;;;3.10;;
66183;SDS011;52989;48.796;9.806;2022-07-10T00:02:37;5.13;;;3.30;;
66183;SDS011;52989;48.796;9.806;2022-07-10T00:05:06;5.57;;;2.85;;
66183;SDS011;52989;48.796;9.806;2022-07-10T00:07:33;6.32;;;3.33;;
66183;SDS011;52989;48.796;9.806;2022-07-10T00:09:59;3.88;;;3.35;;
66183;SDS011;52989;48.796;9.806;2022-07-10T00:12:25;5.35;;;3.35;;
66183;SDS011;52989;48.796;9.806;2022-07-10T00:14:51;4.85;;;3.13;;
66183;SDS011;52989;48.796;9.806;2022-07-10T00:17:16;4.93;;;3.20;;
66183;SDS011;52989;48.796;9.806;2022-07-10T00:19:42;8.27;;;3.80;;
66183;SDS011;52989;48.796;9.806;2022-07-10T00:22:09;6.40;;;3.35;;
66183;SDS011;52989;48.796;9.806;2022-07-10T00:24:34;4.70;;;3.65;;
66183;SDS011;52989;48.796;9.806;2022-07-10T00:27:00;5.75;;;3.60;;
66183;SDS011;52989;48.796;9.806;2022-07-10T00:29:26;5.00;;;3.70;;
66183;SDS011;52989;48.796;9.806;2022-07-10T00:31:51;4.85;;;3.80;;
66183;SDS011;52989;48.796;9.806;2022-07-10T00:34:17;5.07;;;3.80;;
66183;SDS011;52989;48.796;9.806;2022-07-10T00:36:43;7.30;;;3.97;;
66183;SDS011;52989;48.796;9.806;2022-07-10T00:39:08;4.30;;;3.78;;
66183;SDS011;52989;48.796;9.806;2022-07-10T00:41:35;4.20;;;3.55;;
66183;SDS011;52989;48.796;9.806;2022-07-10T00:44:01;4.93;;;3.88;;
66183;SDS011;52989;48.796;9.806;2022-07-10T00:46:28;5.60;;;4.03;;
66183;SDS011;52989;48.796;9.806;2022-07-10T00:48:55;5.65;;;4.30;;
66183;SDS011;52989;48.796;9.806;2022-07-10T00:51:23;4.20;;;3.60;;
66183;SDS011;52989;48.796;9.806;2022-07-10T00:53:50;4.32;;;3.42;;
66183;SDS011;52989;48.796;9.806;2022-07-10T00:56:17;3.85;;;3.40;;
66183;SDS011;52989;48.796;9.806;2022-07-10T00:58:45;4.45;;;4.05;;
66183;SDS011;52989;48.796;9.806;2022-07-10T01:01:12;5.05;;;4.13;;
66183;SDS011;52989;48.796;9.806;2022-07-10T01:03:38;6.03;;;4.03;;
66183;SDS011;52989;48.796;9.806;2022-07-10T01:06:04;7.05;;;3.60;;
66183;SDS011;52989;48.796;9.806;2022-07-10T01:08:29;5.68;;;4.30;;
66183;SDS011;52989;48.796;9.806;2022-07-10T01:10:55;5.03;;;3.80;;
66183;SDS011;52989;48.796;9.806;2022-07-10T01:13:22;7.63;;;3.92;;
66183;SDS011;52989;48.796;9.806;2022-07-10T01:15:48;7.63;;;4.00;;
66183;SDS011;52989;48.796;9.806;2022-07-10T01:18:14;5.85;;;4.57;;
66183;SDS011;52989;48.796;9.806;2022-07-10T01:20:39;4.60;;;4.10;;
66183;SDS011;52989;48.796;9.806;2022-07-10T01:23:05;6.38;;;4.90;;
66183;SDS011;52989;48.796;9.806;2022-07-10T01:25:31;6.47;;;5.15;;
66183;SDS011;52989;48.796;9.806;2022-07-10T01:27:57;5.55;;;4.93;;
66183;SDS011;52989;48.796;9.806;2022-07-10T01:30:23;6.90;;;5.45;;
66183;SDS011;52989;48.796;9.806;2022-07-10T01:32:50;8.38;;;5.10;;
66183;SDS011;52989;48.796;9.806;2022-07-10T01:35:17;8.35;;;6.03;;
66183;SDS011;52989;48.796;9.806;2022-07-10T01:37:44;8.65;;;5.93;;
66183;SDS011;52989;48.796;9.806;2022-07-10T01:40:10;8.32;;;5.70;;
66183;SDS011;52989;48.796;9.806;2022-07-10T01:42:37;9.52;;;5.97;;
66183;SDS011;52989;48.796;9.806;2022-07-10T01:45:05;7.05;;;5.88;;
66183;SDS011;52989;48.796;9.806;2022-07-10T01:47:33;8.88;;;6.70;;
66183;SDS011;52989;48.796;9.806;2022-07-10T01:49:59;11.68;;;7.47;;
66183;SDS011;52989;48.796;9.806;2022-07-10T01:52:24;8.98;;;7.03;;
66183;SDS011;52989;48.796;9.806;2022-07-10T01:54:50;8.88;;;7.00;;
66183;SDS011;52989;48.796;9.806;2022-07-10T01:57:16;10.07;;;7.45;;
66183;SDS011;52989;48.796;9.806;2022-07-10T01:59:41;10.45;;;8.15;;
66183;SDS011;52989;48.796;9.806;2022-07-10T02:02:07;9.18;;;7.90;;
66183;SDS011;52989;48.796;9.806;2022-07-10T02:04:33;8.30;;;7.30;;
66183;SDS011;52989;48.796;9.806;2022-07-10T02:07:08;10.00;;;7.55;;
66183;SDS011;52989;48.796;9.806;2022-07-10T02:09:38;7.53;;;6.10;;
66183;SDS011;52989;48.796;9.806;2022-07-10T02:12:04;7.55;;;6.72;;
66183;SDS011;52989;48.796;9.806;2022-07-10T02:14:31;7.10;;;6.30;;
66183;SDS011;52989;48.796;9.806;2022-07-10T02:16:56;6.78;;;6.07;;
66183;SDS011;52989;48.796;9.806;2022-07-10T02:19:22;5.80;;;5.18;;
66183;SDS011;52989;48.796;9.806;2022-07-10T02:21:48;6.95;;;5.15;;
66183;SDS011;52989;48.796;9.806;2022-07-10T02:24:13;7.20;;;6.00;;
66183;SDS011;52989;48.796;9.806;2022-07-10T02:26:39;15.10;;;6.65;;
66183;SDS011;52989;48.796;9.806;2022-07-10T02:29:05;7.07;;;6.38;;
66183;SDS011;52989;48.796;9.806;2022-07-10T02:31:31;7.20;;;5.60;;
66183;SDS011;52989;48.796;9.806;2022-07-10T02:33:59;7.13;;;6.15;;
66183;SDS011;52989;48.796;9.806;2022-07-10T02:36:25;7.90;;;5.68;;
66183;SDS011;52989;48.796;9.806;2022-07-10T02:38:50;7.53;;;5.10;;
66183;SDS011;52989;48.796;9.806;2022-07-10T02:41:16;5.53;;;4.32;;
66183;SDS011;52989;48.796;9.806;2022-07-10T02:43:42;6.93;;;4.93;;
66183;SDS011;52989;48.796;9.806;2022-07-10T02:46:07;9.45;;;5.43;;
66183;SDS011;52989;48.796;9.806;2022-07-10T02:48:33;7.30;;;5.40;;
66183;SDS011;52989;48.796;9.806;2022-07-10T02:50:59;8.48;;;5.88;;
66183;SDS011;52989;48.796;9.806;2022-07-10T02:53:25;8.73;;;5.10;;
66183;SDS011;52989;48.796;9.806;2022-07-10T02:55:50;5.93;;;5.32;;
66183;SDS011;52989;48.796;9.806;2022-07-10T02:58:16;6.70;;;5.18;;
66183;SDS011;52989;48.796;9.806;2022-07-10T03:00:42;8.38;;;5.60;;
66183;SDS011;52989;48.796;9.806;2022-07-10T03:03:08;6.35;;;5.38;;
66183;SDS011;52989;48.796;9.806;2022-07-10T03:05:34;5.90;;;5.00;;
66183;SDS011;52989;48.796;9.806;2022-07-10T03:07:59;6.55;;;4.90;;
66183;SDS011;52989;48.796;9.806;2022-07-10T03:10:25;8.68;;;4.80;;
66183;SDS011;52989;48.796;9.806;2022-07-10T03:12:50;6.78;;;4.68;;
66183;SDS011;52989;48.796;9.806;2022-07-10T03:15:16;4.97;;;4.28;;
66183;SDS011;52989;48.796;9.806;2022-07-10T03:17:42;6.13;;;4.60;;
66183;SDS011;52989;48.796;9.806;2022-07-10T03:20:08;7.95;;;4.95;;
66183;SDS011;52989;48.796;9.806;2022-07-10T03:22:34;5.78;;;4.43;;
66183;SDS011;52989;48.796;9.806;2022-07-10T03:25:00;5.82;;;4.43;;
66183;SDS011;52989;48.796;9.806;2022-07-10T03:27:26;7.20;;;4.60;;
66183;SDS011;52989;48.796;9.806;2022-07-10T03:29:51;7.00;;;4.60;;
66183;SDS011;52989;48.796;9.806;2022-07-10T03:32:17;6.68;;;4.53;;
66183;SDS011;52989;48.796;9.806;2022-07-10T03:34:42;5.43;;;4.45;;
66183;SDS011;52989;48.796;9.806;2022-07-10T03:37:08;7.72;;;4.38;;
66183;SDS011;52989;48.796;9.806;2022-07-10T03:39:34;5.95;;;4.47;;
66183;SDS011;52989;48.796;9.806;2022-07-10T03:41:59;6.43;;;4.47;;
66183;SDS011;52989;48.796;9.806;2022-07-10T03:44:25;8.00;;;4.10;;
66183;SDS011;52989;48.796;9.806;2022-07-10T03:46:51;5.75;;;4.40;;
66183;SDS011;52989;48.796;9.806;2022-07-10T03:49:16;6.00;;;4.22;;
66183;SDS011;52989;48.796;9.806;2022-07-10T03:51:42;5.78;;;4.78;;
66183;SDS011;52989;48.796;9.806;2022-07-10T03:54:08;9.82;;;4.63;;
66183;SDS011;52989;48.796;9.806;2022-07-10T03:56:33;5.57;;;4.95;;
66183;SDS011;52989;48.796;9.806;2022-07-10T03:59:17;7.55;;;5.10;;
66183;SDS011;52989;48.796;9.806;2022-07-10T04:01:43;5.80;;;4.50;;
66183;SDS011;52989;48.796;9.806;2022-07-10T04:04:08;8.65;;;5.28;;
66183;SDS011;52989;48.796;9.806;2022-07-10T04:06:34;7.65;;;4.97;;
66183;SDS011;52989;48.796;9.806;2022-07-10T04:09:03;6.32;;;5.30;;
66183;SDS011;52989;48.796;9.806;2022-07-10T04:11:29;6.43;;;5.10;;
66183;SDS011;52989;48.796;9.806;2022-07-10T04:13:55;8.82;;;5.45;;
66183;SDS011;52989;48.796;9.806;2022-07-10T04:16:20;9.63;;;5.70;;
66183;SDS011;52989;48.796;9.806;2022-07-10T04:18:46;6.93;;;5.30;;
66183;SDS011;52989;48.796;9.806;2022-07-10T04:21:11;8.10;;;5.13;;
66183;SDS011;52989;48.796;9.806;2022-07-10T04:23:37;7.88;;;4.88;;
66183;SDS011;52989;48.796;9.806;2022-07-10T04:26:02;7.93;;;4.90;;
66183;SDS011;52989;48.796;9.806;2022-07-10T04:28:28;7.03;;;4.32;;
66183;SDS011;52989;48.796;9.806;2022-07-10T04:30:54;7.68;;;4.32;;
66183;SDS011;52989;48.796;9.806;2022-07-10T04:33:19;6.85;;;4.78;;
66183;SDS011;52989;48.796;9.806;2022-07-10T04:35:45;9.48;;;5.35;;
66183;SDS011;52989;48.796;9.806;2022-07-10T04:38:10;8.98;;;5.07;;
66183;SDS011;52989;48.796;9.806;2022-07-10T04:40:36;6.07;;;4.88;;
66183;SDS011;52989;48.796;9.806;2022-07-10T04:43:01;7.10;;;4.70;;
66183;SDS011;52989;48.796;9.806;2022-07-10T04:45:27;7.20;;;4.80;;
66183;SDS011;52989;48.796;9.806;2022-07-10T04:47:52;5.22;;;4.38;;
66183;SDS011;52989;48.796;9.806;2022-07-10T04:50:18;6.70;;;4.90;;
66183;SDS011;52989;48.796;9.806;2022-07-10T04:52:44;8.48;;;4.38;;
66183;SDS011;52989;48.796;9.806;2022-07-10T04:55:09;5.05;;;4.03;;
66183;SDS011;52989;48.796;9.806;2022-07-10T04:57:35;7.07;;;3.60;;
66183;SDS011;52989;48.796;9.806;2022-07-10T05:00:00;5.80;;;3.80;;
66183;SDS011;52989;48.796;9.806;2022-07-10T05:02:26;5.28;;;3.35;;
66183;SDS011;52989;48.796;9.806;2022-07-10T05:04:52;8.02;;;3.00;;
66183;SDS011;52989;48.796;9.806;2022-07-10T05:07:18;4.45;;;2.75;;
66183;SDS011;52989;48.796;9.806;2022-07-10T05:09:43;8.13;;;3.50;;
66183;SDS011;52989;48.796;9.806;2022-07-10T05:12:09;5.95;;;3.38;;
66183;SDS011;52989;48.796;9.806;2022-07-10T05:14:34;4.80;;;3.17;;
66183;SDS011;52989;48.796;9.806;2022-07-10T05:17:00;5.47;;;3.55;;
66183;SDS011;52989;48.796;9.806;2022-07-10T05:19:26;6.85;;;3.10;;
66183;SDS011;52989;48.796;9.806;2022-07-10T05:21:51;5.50;;;2.65;;
66183;SDS011;52989;48.796;9.806;2022-07-10T05:24:17;8.40;;;3.00;;
66183;SDS011;52989;48.796;9.806;2022-07-10T05:26:43;5.20;;;2.83;;
66183;SDS011;52989;48.796;9.806;2022-07-10T05:29:08;5.18;;;3.03;;
66183;SDS011;52989;48.796;9.806;2022-07-10T05:31:34;6.32;;;2.70;;
66183;SDS011;52989;48.796;9.806;2022-07-10T05:33:59;3.33;;;2.50;;
66183;SDS011;52989;48.796;9.806;2022-07-10T05:36:25;3.97;;;2.40;;
66183;SDS011;52989;48.796;9.806;2022-07-10T05:38:51;5.45;;;2.63;;
66183;SDS011;52989;48.796;9.806;2022-07-10T05:41:17;4.07;;;2.30;;
66183;SDS011;52989;48.796;9.806;2022-07-10T05:43:42;3.75;;;2.17;;
66183;SDS011;52989;48.796;9.806;2022-07-10T05:46:08;3.45;;;2.28;;
66183;SDS011;52989;48.796;9.806;2022-07-10T05:48:33;4.38;;;2.10;;
66183;SDS011;52989;48.796;9.806;2022-07-10T05:50:59;4.05;;;2.22;;
66183;SDS011;52989;48.796;9.806;2022-07-10T05:53:25;4.55;;;2.40;;
66183;SDS011;52989;48.796;9.806;2022-07-10T05:55:50;5.43;;;2.30;;
66183;SDS011;52989;48.796;9.806;2022-07-10T05:58:16;8.30;;;2.35;;
66183;SDS011;52989;48.796;9.806;2022-07-10T06:00:41;3.80;;;2.00;;
66183;SDS011;52989;48.796;9.806;2022-07-10T06:03:11;2.70;;;1.70;;
66183;SDS011;52989;48.796;9.806;2022-07-10T06:05:37;4.38;;;1.70;;
66183;SDS011;52989;48.796;9.806;2022-07-10T06:08:03;2.92;;;1.70;;
66183;SDS011;52989;48.796;9.806;2022-07-10T06:10:29;3.55;;;1.70;;
66183;SDS011;52989;48.796;9.806;2022-07-10T06:12:55;3.67;;;1.52;;
66183;SDS011;52989;48.796;9.806;2022-07-10T06:15:20;6.03;;;1.48;;
66183;SDS011;52989;48.796;9.806;2022-07-10T06:17:46;4.63;;;1.67;;
66183;SDS011;52989;48.796;9.806;2022-07-10T06:20:11;4.55;;;1.90;;
66183;SDS011;52989;48.796;9.806;2022-07-10T06:22:37;3.80;;;1.70;;
66183;SDS011;52989;48.796;9.806;2022-07-10T06:25:05;3.00;;;1.45;;
66183;SDS011;52989;48.796;9.806;2022-07-10T06:27:32;4.20;;;1.70;;
66183;SDS011;52989;48.796;9.806;2022-07-10T06:29:58;3.30;;;1.70;;
66183;SDS011;52989;48.796;9.806;2022-07-10T06:32:25;6.38;;;1.70;;
66183;SDS011;52989;48.796;9.806;2022-07-10T06:34:51;5.38;;;1.52;;
66183;SDS011;52989;48.796;9.806;2022-07-10T06:37:18;3.75;;;1.52;;
66183;SDS011;52989;48.796;9.806;2022-07-10T06:39:44;3.28;;;1.15;;
66183;SDS011;52989;48.796;9.806;2022-07-10T06:42:12;3.50;;;1.35;;
66183;SDS011;52989;48.796;9.806;2022-07-10T06:44:37;4.75;;;1.25;;
66183;SDS011;52989;48.796;9.806;2022-07-10T06:47:03;3.83;;;1.60;;
66183;SDS011;52989;48.796;9.806;2022-07-10T06:49:47;5.95;;;1.55;;
66183;SDS011;52989;48.796;9.806;2022-07-10T06:52:13;4.30;;;1.40;;
66183;SDS011;52989;48.796;9.806;2022-07-10T06:54:39;2.20;;;1.30;;
66183;SDS011;52989;48.796;9.806;2022-07-10T06:57:06;3.75;;;1.23;;
66183;SDS011;52989;48.796;9.806;2022-07-10T06:59:31;7.47;;;1.27;;
66183;SDS011;52989;48.796;9.806;2022-07-10T07:01:57;4.13;;;1.40;;
66183;SDS011;52989;48.796;9.806;2022-07-10T07:04:23;8.75;;;1.45;;
66183;SDS011;52989;48.796;9.806;2022-07-10T07:06:49;3.28;;;1.23;;
66183;SDS011;52989;48.796;9.806;2022-07-10T07:09:15;5.03;;;1.35;;
66183;SDS011;52989;48.796;9.806;2022-07-10T07:11:40;4.35;;;1.40;;
66183;SDS011;52989;48.796;9.806;2022-07-10T07:14:06;2.65;;;1.30;;
66183;SDS011;52989;48.796;9.806;2022-07-10T07:16:31;2.88;;;1.40;;
66183;SDS011;52989;48.796;9.806;2022-07-10T07:19:06;3.90;;;1.25;;
66183;SDS011;52989;48.796;9.806;2022-07-10T07:21:32;5.15;;;1.30;;
66183;SDS011;52989;48.796;9.806;2022-07-10T07:24:16;1.90;;;0.80;;
66183;SDS011;52989;48.796;9.806;2022-07-10T07:26:45;5.15;;;1.10;;
66183;SDS011;52989;48.796;9.806;2022-07-10T07:29:15;4.65;;;1.15;;
66183;SDS011;52989;48.796;9.806;2022-07-10T07:31:41;7.10;;;1.33;;
66183;SDS011;52989;48.796;9.806;2022-07-10T07:34:07;2.97;;;1.00;;
66183;SDS011;52989;48.796;9.806;2022-07-10T07:36:33;3.78;;;1.10;;
66183;SDS011;52989;48.796;9.806;2022-07-10T07:38:59;5.50;;;1.05;;
66183;SDS011;52989;48.796;9.806;2022-07-10T07:41:25;4.65;;;1.08;;
66183;SDS011;52989;48.796;9.806;2022-07-10T07:43:51;4.85;;;1.20;;
66183;SDS011;52989;48.796;9.806;2022-07-10T07:46:17;3.95;;;1.30;;
66183;SDS011;52989;48.796;9.806;2022-07-10T07:48:43;4.95;;;1.33;;
66183;SDS011;52989;48.796;9.806;2022-07-10T07:51:09;4.05;;;1.08;;
66183;SDS011;52989;48.796;9.806;2022-07-10T07:53:34;7.10;;;1.42;;
66183;SDS011;52989;48.796;9.806;2022-07-10T07:56:00;7.90;;;1.30;;
66183;SDS011;52989;48.796;9.806;2022-07-10T07:58:26;5.60;;;1.08;;
66183;SDS011;52989;48.796;9.806;2022-07-10T08:00:51;6.30;;;1.33;;
66183;SDS011;52989;48.796;9.806;2022-07-10T08:03:17;4.25;;;1.38;;
66183;SDS011;52989;48.796;9.806;2022-07-10T08:05:43;5.13;;;1.20;;
66183;SDS011;52989;48.796;9.806;2022-07-10T08:08:09;3.28;;;1.20;;
66183;SDS011;52989;48.796;9.806;2022-07-10T08:10:35;2.85;;;1.00;;
66183;SDS011;52989;48.796;9.806;2022-07-10T08:13:02;5.65;;;1.60;;
66183;SDS011;52989;48.796;9.806;2022-07-10T08:15:28;4.25;;;1.10;;
66183;SDS011;52989;48.796;9.806;2022-07-10T08:17:56;7.00;;;1.13;;
66183;SDS011;52989;48.796;9.806;2022-07-10T08:20:23;3.30;;;1.15;;
66183;SDS011;52989;48.796;9.806;2022-07-10T08:22:50;2.55;;;1.00;;
66183;SDS011;52989;48.796;9.806;2022-07-10T08:25:17;2.38;;;0.90;;
66183;SDS011;52989;48.796;9.806;2022-07-10T08:27:43;7.38;;;1.02;;
66183;SDS011;52989;48.796;9.806;2022-07-10T08:30:09;3.58;;;1.10;;
66183;SDS011;52989;48.796;9.806;2022-07-10T08:32:36;3.13;;;0.95;;
66183;SDS011;52989;48.796;9.806;2022-07-10T08:35:05;4.18;;;1.10;;
66183;SDS011;52989;48.796;9.806;2022-07-10T08:37:38;6.22;;;1.30;;
66183;SDS011;52989;48.796;9.806;2022-07-10T08:40:08;4.25;;;1.00;;
66183;SDS011;52989;48.796;9.806;2022-07-10T08:42:34;4.93;;;1.23;;
66183;SDS011;52989;48.796;9.806;2022-07-10T08:45:00;3.75;;;1.33;;
66183;SDS011;52989;48.796;9.806;2022-07-10T08:47:26;6.28;;;1.30;;
66183;SDS011;52989;48.796;9.806;2022-07-10T08:49:56;3.60;;;1.20;;
66183;SDS011;52989;48.796;9.806;2022-07-10T08:52:26;3.85;;;1.30;;
66183;SDS011;52989;48.796;9.806;2022-07-10T08:55:24;4.40;;;1.40;;
66183;SDS011;52989;48.796;9.806;2022-07-10T08:57:51;5.85;;;1.40;;
66183;SDS011;52989;48.796;9.806;2022-07-10T09:00:17;4.65;;;1.40;;
66183;SDS011;52989;48.796;9.806;2022-07-10T09:02:43;2.83;;;1.27;;
66183;SDS011;52989;48.796;9.806;2022-07-10T09:05:08;3.22;;;1.20;;
66183;SDS011;52989;48.796;9.806;2022-07-10T09:07:35;6.97;;;1.17;;
66183;SDS011;52989;48.796;9.806;2022-07-10T09:10:05;3.63;;;1.20;;
66183;SDS011;52989;48.796;9.806;2022-07-10T09:12:48;5.88;;;1.33;;
66183;SDS011;52989;48.796;9.806;2022-07-10T09:15:15;5.53;;;1.33;;
66183;SDS011;52989;48.796;9.806;2022-07-10T09:20:23;4.70;;;1.40;;
66183;SDS011;52989;48.796;9.806;2022-07-10T09:22:50;4.22;;;1.40;;
66183;SDS011;52989;48.796;9.806;2022-07-10T09:25:15;7.07;;;1.65;;
66183;SDS011;52989;48.796;9.806;2022-07-10T09:27:53;3.13;;;1.15;;
66183;SDS011;52989;48.796;9.806;2022-07-10T09:30:35;4.47;;;1.30;;
66183;SDS011;52989;48.796;9.806;2022-07-10T09:38:51;3.25;;;1.20;;
66183;SDS011;52989;48.796;9.806;2022-07-10T09:41:18;2.88;;;1.30;;
66183;SDS011;52989;48.796;9.806;2022-07-10T09:43:52;2.00;;;1.10;;
66183;SDS011;52989;48.796;9.806;2022-07-10T09:49:11;2.17;;;1.30;;
66183;SDS011;52989;48.796;9.806;2022-07-10T09:51:44;4.55;;;1.17;;
66183;SDS011;52989;48.796;9.806;2022-07-10T09:54:11;2.50;;;1.17;;
66183;SDS011;52989;48.796;9.806;2022-07-10T09:59:02;4.28;;;1.70;;
66183;SDS011;52989;48.796;9.806;2022-07-10T10:01:34;4.68;;;1.30;;
66183;SDS011;52989;48.796;9.806;2022-07-10T10:04:01;2.75;;;1.30;;
66183;SDS011;52989;48.796;9.806;2022-07-10T10:06:29;2.72;;;1.30;;
66183;SDS011;52989;48.796;9.806;2022-07-10T10:08:57;3.40;;;1.17;;
66183;SDS011;52989;48.796;9.806;2022-07-10T10:11:30;2.88;;;1.20;;
66183;SDS011;52989;48.796;9.806;2022-07-10T10:14:00;3.47;;;1.42;;
66183;SDS011;52989;48.796;9.806;2022-07-10T10:16:27;2.47;;;1.15;;
66183;SDS011;52989;48.796;9.806;2022-07-10T10:18:53;3.67;;;1.20;;
66183;SDS011;52989;48.796;9.806;2022-07-10T10:21:39;2.63;;;1.30;;
66183;SDS011;52989;48.796;9.806;2022-07-10T10:24:05;3.58;;;1.13;;
66183;SDS011;52989;48.796;9.806;2022-07-10T10:26:32;4.00;;;1.02;;
66183;SDS011;52989;48.796;9.806;2022-07-10T10:28:59;8.25;;;1.40;;
66183;SDS011;52989;48.796;9.806;2022-07-10T10:31:28;2.78;;;1.17;;
66183;SDS011;52989;48.796;9.806;2022-07-10T10:33:55;3.88;;;1.30;;
66183;SDS011;52989;48.796;9.806;2022-07-10T10:39:16;2.40;;;1.10;;
66183;SDS011;52989;48.796;9.806;2022-07-10T10:41:50;2.97;;;1.08;;
66183;SDS011;52989;48.796;9.806;2022-07-10T10:49:15;2.75;;;0.85;;
66183;SDS011;52989;48.796;9.806;2022-07-10T10:57:10;3.15;;;0.95;;
66183;SDS011;52989;48.796;9.806;2022-07-10T10:59:44;3.85;;;1.27;;
66183;SDS011;52989;48.796;9.806;2022-07-10T11:02:32;4.20;;;1.17;;
66183;SDS011;52989;48.796;9.806;2022-07-10T11:10:29;2.97;;;1.10;;
66183;SDS011;52989;48.796;9.806;2022-07-10T11:13:02;5.25;;;1.13;;
66183;SDS011;52989;48.796;9.806;2022-07-10T11:15:38;5.70;;;1.08;;
66183;SDS011;52989;48.796;9.806;2022-07-10T11:20:41;1.75;;;0.90;;
66183;SDS011;52989;48.796;9.806;2022-07-10T11:26:10;4.05;;;0.98;;
66183;SDS011;52989;48.796;9.806;2022-07-10T11:28:54;1.98;;;0.98;;
66183;SDS011;52989;48.796;9.806;2022-07-10T11:31:21;3.00;;;1.10;;
66183;SDS011;52989;48.796;9.806;2022-07-10T11:33:54;2.75;;;0.90;;
66183;SDS011;52989;48.796;9.806;2022-07-10T11:36:27;3.03;;;1.00;;
66183;SDS011;52989;48.796;9.806;2022-07-10T11:38:59;2.15;;;0.70;;
66183;SDS011;52989;48.796;9.806;2022-07-10T11:41:29;2.40;;;0.70;;
66183;SDS011;52989;48.796;9.806;2022-07-10T11:43:59;2.15;;;0.75;;
66183;SDS011;52989;48.796;9.806;2022-07-10T11:46:32;2.15;;;0.80;;
66183;SDS011;52989;48.796;9.806;2022-07-10T11:48:59;1.98;;;0.95;;
66183;SDS011;52989;48.796;9.806;2022-07-10T11:51:30;3.92;;;0.80;;
66183;SDS011;52989;48.796;9.806;2022-07-10T11:54:03;1.40;;;0.70;;
66183;SDS011;52989;48.796;9.806;2022-07-10T11:56:31;2.17;;;0.68;;
66183;SDS011;52989;48.796;9.806;2022-07-10T11:59:02;4.55;;;0.90;;
66183;SDS011;52989;48.796;9.806;2022-07-10T12:01:30;3.30;;;0.90;;
66183;SDS011;52989;48.796;9.806;2022-07-10T12:06:28;2.80;;;0.70;;
66183;SDS011;52989;48.796;9.806;2022-07-10T12:08:56;1.83;;;0.70;;
66183;SDS011;52989;48.796;9.806;2022-07-10T12:11:29;2.90;;;0.60;;
66183;SDS011;52989;48.796;9.806;2022-07-10T12:14:08;2.40;;;0.65;;
66183;SDS011;52989;48.796;9.806;2022-07-10T12:16:38;3.53;;;0.80;;
66183;SDS011;52989;48.796;9.806;2022-07-10T12:19:05;1.98;;;0.80;;
66183;SDS011;52989;48.796;9.806;2022-07-10T12:21:31;3.85;;;0.88;;
66183;SDS011;52989;48.796;9.806;2022-07-10T12:23:58;1.17;;;0.60;;
66183;SDS011;52989;48.796;9.806;2022-07-10T12:26:44;2.67;;;1.02;;
66183;SDS011;52989;48.796;9.806;2022-07-10T12:31:37;4.28;;;0.90;;
66183;SDS011;52989;48.796;9.806;2022-07-10T12:34:03;1.70;;;0.60;;
66183;SDS011;52989;48.796;9.806;2022-07-10T12:39:18;3.63;;;0.80;;
66183;SDS011;52989;48.796;9.806;2022-07-10T12:44:40;1.98;;;0.80;;
66183;SDS011;52989;48.796;9.806;2022-07-10T12:47:16;1.63;;;0.70;;
66183;SDS011;52989;48.796;9.806;2022-07-10T12:49:48;2.85;;;0.80;;
66183;SDS011;52989;48.796;9.806;2022-07-10T12:57:57;2.00;;;0.80;;
66183;SDS011;52989;48.796;9.806;2022-07-10T13:00:30;4.70;;;0.80;;
66183;SDS011;52989;48.796;9.806;2022-07-10T13:02:58;2.13;;;0.55;;
66183;SDS011;52989;48.796;9.806;2022-07-10T13:05:26;3.70;;;0.73;;
66183;SDS011;52989;48.796;9.806;2022-07-10T13:08:06;2.55;;;0.50;;
66183;SDS011;52989;48.796;9.806;2022-07-10T13:10:37;2.63;;;0.88;;
66183;SDS011;52989;48.796;9.806;2022-07-10T13:13:03;3.83;;;0.60;;
66183;SDS011;52989;48.796;9.806;2022-07-10T13:15:29;2.47;;;0.55;;
66183;SDS011;52989;48.796;9.806;2022-07-10T13:17:55;2.47;;;0.77;;
66183;SDS011;52989;48.796;9.806;2022-07-10T13:20:23;3.75;;;0.85;;
66183;SDS011;52989;48.796;9.806;2022-07-10T13:22:49;4.93;;;0.95;;
66183;SDS011;52989;48.796;9.806;2022-07-10T13:25:14;3.20;;;0.85;;
66183;SDS011;52989;48.796;9.806;2022-07-10T13:27:40;2.08;;;0.80;;
66183;SDS011;52989;48.796;9.806;2022-07-10T13:30:07;3.67;;;0.80;;
66183;SDS011;52989;48.796;9.806;2022-07-10T13:32:33;2.70;;;0.90;;
66183;SDS011;52989;48.796;9.806;2022-07-10T13:34:59;2.08;;;0.70;;
66183;SDS011;52989;48.796;9.806;2022-07-10T13:37:24;1.55;;;0.70;;
66183;SDS011;52989;48.796;9.806;2022-07-10T13:39:50;3.10;;;0.80;;
66183;SDS011;52989;48.796;9.806;2022-07-10T13:42:16;2.95;;;0.90;;
66183;SDS011;52989;48.796;9.806;2022-07-10T13:44:41;1.35;;;0.55;;
66183;SDS011;52989;48.796;9.806;2022-07-10T13:47:07;2.55;;;0.68;;
66183;SDS011;52989;48.796;9.806;2022-07-10T13:49:32;1.67;;;0.60;;
66183;SDS011;52989;48.796;9.806;2022-07-10T13:51:58;3.75;;;0.90;;
66183;SDS011;52989;48.796;9.806;2022-07-10T13:54:23;1.63;;;0.70;;
66183;SDS011;52989;48.796;9.806;2022-07-10T13:56:49;1.38;;;0.60;;
66183;SDS011;52989;48.796;9.806;2022-07-10T13:59:15;2.33;;;0.75;;
66183;SDS011;52989;48.796;9.806;2022-07-10T14:01:41;2.95;;;0.80;;
66183;SDS011;52989;48.796;9.806;2022-07-10T14:04:06;2.13;;;0.50;;
66183;SDS011;52989;48.796;9.806;2022-07-10T14:06:34;3.28;;;0.55;;
66183;SDS011;52989;48.796;9.806;2022-07-10T14:09:00;1.83;;;0.70;;
66183;SDS011;52989;48.796;9.806;2022-07-10T14:11:26;2.83;;;0.63;;
66183;SDS011;52989;48.796;9.806;2022-07-10T14:13:51;1.20;;;0.45;;
66183;SDS011;52989;48.796;9.806;2022-07-10T14:16:17;1.08;;;0.50;;
66183;SDS011;52989;48.796;9.806;2022-07-10T14:18:43;1.85;;;0.70;;
66183;SDS011;52989;48.796;9.806;2022-07-10T14:21:09;0.73;;;0.50;;
66183;SDS011;52989;48.796;9.806;2022-07-10T14:23:39;1.63;;;0.60;;
66183;SDS011;52989;48.796;9.806;2022-07-10T14:26:07;1.77;;;0.65;;
66183;SDS011;52989;48.796;9.806;2022-07-10T14:28:33;4.57;;;0.70;;
66183;SDS011;52989;48.796;9.806;2022-07-10T14:31:03;2.40;;;0.60;;
66183;SDS011;52989;48.796;9.806;2022-07-10T14:33:30;2.15;;;0.50;;
66183;SDS011;52989;48.796;9.806;2022-07-10T14:35:57;3.38;;;0.60;;
66183;SDS011;52989;48.796;9.806;2022-07-10T14:38:22;1.75;;;0.70;;
66183;SDS011;52989;48.796;9.806;2022-07-10T14:40:48;1.45;;;0.60;;
66183;SDS011;52989;48.796;9.806;2022-07-10T14:43:16;2.03;;;0.70;;
66183;SDS011;52989;48.796;9.806;2022-07-10T14:45:42;1.85;;;0.70;;
66183;SDS011;52989;48.796;9.806;2022-07-10T14:48:08;2.35;;;0.70;;
66183;SDS011;52989;48.796;9.806;2022-07-10T14:50:33;3.05;;;0.75;;
66183;SDS011;52989;48.796;9.806;2022-07-10T14:52:59;2.78;;;0.60;;
66183;SDS011;52989;48.796;9.806;2022-07-10T14:55:24;2.38;;;0.70;;
66183;SDS011;52989;48.796;9.806;2022-07-10T14:57:50;2.70;;;0.82;;
66183;SDS011;52989;48.796;9.806;2022-07-10T15:00:16;1.75;;;0.82;;
66183;SDS011;52989;48.796;9.806;2022-07-10T15:02:43;1.98;;;0.70;;
66183;SDS011;52989;48.796;9.806;2022-07-10T15:05:09;1.67;;;0.70;;
66183;SDS011;52989;48.796;9.806;2022-07-10T15:07:34;1.92;;;0.77;;
66183;SDS011;52989;48.796;9.806;2022-07-10T15:10:00;1.00;;;0.50;;
66183;SDS011;52989;48.796;9.806;2022-07-10T15:12:26;3.58;;;0.80;;
66183;SDS011;52989;48.796;9.806;2022-07-10T15:14:51;1.85;;;0.50;;
66183;SDS011;52989;48.796;9.806;2022-07-10T15:17:18;2.80;;;0.60;;
66183;SDS011;52989;48.796;9.806;2022-07-10T15:19:43;3.40;;;1.55;;
66183;SDS011;52989;48.796;9.806;2022-07-10T15:22:09;2.30;;;0.80;;
66183;SDS011;52989;48.796;9.806;2022-07-10T15:24:34;4.85;;;1.58;;
66183;SDS011;52989;48.796;9.806;2022-07-10T15:27:00;1.55;;;0.65;;
66183;SDS011;52989;48.796;9.806;2022-07-10T15:29:25;7.28;;;0.88;;
66183;SDS011;52989;48.796;9.806;2022-07-10T15:31:51;1.98;;;0.63;;
66183;SDS011;52989;48.796;9.806;2022-07-10T15:34:17;2.15;;;0.63;;
66183;SDS011;52989;48.796;9.806;2022-07-10T15:36:43;1.60;;;0.60;;
66183;SDS011;52989;48.796;9.806;2022-07-10T15:39:11;3.85;;;0.70;;
66183;SDS011;52989;48.796;9.806;2022-07-10T15:41:38;3.95;;;0.80;;